Time;durP1;ratioP1;P1;durP2;ratioP2;P2;SDS_P1;SDS_P2;PMS_P1;PMS_P2;Temp;Humidity;BMP_temperature;BMP_pressure;BME280_temperature;BME280_humidity;BME280_pressure;Samples;Min_cycle;Max_cycle;Signal;HPM_P1;HPM_P2
2022/05/04 00:01:08;;;;;;;13.38;9.55;;;;;;;9.95;68.40;100900.09;5118502;28;20031;-75
2022/05/04 00:03:39;;;;;;;12.05;9.07;;;;;;;9.88;68.42;100898.69;5079948;28;20028;-75
2022/05/04 00:06:08;;;;;;;15.77;10.02;;;;;;;9.85;68.37;100897.31;5114421;28;20720;-75
2022/05/04 00:08:33;;;;;;;17.58;9.52;;;;;;;9.80;68.44;100889.00;5090145;28;20077;-75
2022/05/04 00:10:59;;;;;;;13.15;9.00;;;;;;;9.79;68.22;100898.44;5096823;28;20031;-75
2022/05/04 00:13:25;;;;;;;14.18;9.70;;;;;;;9.72;68.47;100886.78;5118230;28;20019;-75
2022/05/04 00:15:50;;;;;;;13.02;9.32;;;;;;;9.73;68.40;100883.75;5100274;28;20039;-75
2022/05/04 00:18:16;;;;;;;14.50;10.02;;;;;;;9.68;68.43;100882.91;5079950;28;20092;-75
2022/05/04 00:20:41;;;;;;;13.98;9.35;;;;;;;9.68;68.72;100880.16;5097012;28;20034;-75
2022/05/04 00:23:07;;;;;;;16.40;9.45;;;;;;;9.60;68.68;100885.13;5118285;28;20031;-75
2022/05/04 00:25:32;;;;;;;14.48;9.63;;;;;;;9.56;69.11;100892.34;5118083;28;20507;-75
2022/05/04 00:28:00;;;;;;;18.05;9.90;;;;;;;9.52;69.03;100882.09;5111821;28;20027;-75
2022/05/04 00:30:26;;;;;;;15.02;9.85;;;;;;;9.51;69.00;100886.00;5096297;28;20039;-75
2022/05/04 00:32:52;;;;;;;15.95;10.85;;;;;;;9.48;69.10;100881.81;5118144;28;20148;-75
2022/05/04 00:35:17;;;;;;;15.68;10.05;;;;;;;9.46;68.87;100872.13;5065983;28;20137;-75
2022/05/04 00:37:43;;;;;;;15.95;10.45;;;;;;;9.42;68.67;100877.41;5118149;28;20031;-76
2022/05/04 00:40:09;;;;;;;15.93;10.85;;;;;;;9.36;69.48;100881.25;5118037;28;20031;-76
2022/05/04 00:42:34;;;;;;;17.50;10.57;;;;;;;9.33;69.38;100873.50;5098779;28;20046;-76
2022/05/04 00:45:00;;;;;;;14.52;10.20;;;;;;;9.29;69.63;100870.44;5095536;28;20038;-76
2022/05/04 00:47:25;;;;;;;17.80;10.98;;;;;;;9.26;69.17;100872.97;5117893;28;20036;-75
2022/05/04 00:49:51;;;;;;;16.00;11.07;;;;;;;9.27;69.61;100869.06;5066116;28;20069;-76
2022/05/04 00:52:17;;;;;;;17.35;10.93;;;;;;;9.23;69.48;100863.25;5079134;28;20028;-76
2022/05/04 00:54:43;;;;;;;17.38;11.15;;;;;;;9.22;69.47;100861.59;5113162;28;20156;-76
2022/05/04 00:57:09;;;;;;;18.15;11.40;;;;;;;9.14;69.25;100854.66;5117203;28;20054;-76
2022/05/04 00:59:36;;;;;;;17.90;11.07;;;;;;;9.16;69.32;100849.69;5099645;28;20027;-76
2022/05/04 01:02:02;;;;;;;17.70;11.45;;;;;;;9.09;69.38;100842.75;5079184;28;20085;-76
2022/05/04 01:04:27;;;;;;;19.42;12.52;;;;;;;9.08;69.63;100854.91;5099126;28;20503;-76
2022/05/04 01:06:53;;;;;;;18.27;12.00;;;;;;;9.07;69.49;100858.81;5099464;28;20039;-76
2022/05/04 01:09:19;;;;;;;17.35;11.07;;;;;;;9.06;69.13;100846.91;5065350;28;20047;-76
2022/05/04 01:11:46;;;;;;;18.45;12.52;;;;;;;9.03;69.99;100847.44;5098599;28;20031;-76
2022/05/04 01:14:12;;;;;;;20.63;12.50;;;;;;;8.99;70.07;100851.03;5098900;28;20050;-76
2022/05/04 01:16:39;;;;;;;20.88;13.05;;;;;;;8.95;70.30;100854.34;5117368;28;20039;-76
2022/05/04 01:19:06;;;;;;;20.63;13.50;;;;;;;8.96;70.29;100849.66;5117318;28;20028;-75
2022/05/04 01:21:32;;;;;;;20.40;13.98;;;;;;;8.94;70.20;100854.63;5099282;28;20027;-76
2022/05/04 01:23:57;;;;;;;20.60;13.60;;;;;;;8.90;70.09;100861.81;5117206;28;20081;-76
2022/05/04 01:26:23;;;;;;;21.75;13.57;;;;;;;8.86;70.32;100852.38;5078065;28;20669;-76
2022/05/04 01:28:48;;;;;;;21.92;12.70;;;;;;;8.85;70.34;100856.28;5094738;28;20040;-75
2022/05/04 01:31:14;;;;;;;21.65;12.80;;;;;;;8.82;70.29;100856.81;5099083;28;20089;-76
2022/05/04 01:33:39;;;;;;;20.05;12.75;;;;;;;8.80;70.42;100850.72;5098643;28;20467;-76
2022/05/04 01:36:06;;;;;;;22.70;13.82;;;;;;;8.74;70.20;100849.88;5081949;28;20439;-75
2022/05/04 01:38:32;;;;;;;22.02;13.57;;;;;;;8.75;70.55;100845.16;5116975;28;20030;-76
2022/05/04 01:40:57;;;;;;;21.50;13.23;;;;;;;8.72;70.63;100855.72;5098713;28;20035;-75
2022/05/04 01:43:23;;;;;;;21.95;13.93;;;;;;;8.68;70.92;100853.75;5098423;28;20031;-75
2022/05/04 01:45:48;;;;;;;22.27;13.40;;;;;;;8.64;70.83;100849.88;5116808;28;20468;-76
2022/05/04 01:48:14;;;;;;;21.48;13.77;;;;;;;8.61;70.99;100854.03;5116856;28;20034;-75
2022/05/04 01:50:39;;;;;;;22.52;14.30;;;;;;;8.61;71.30;100867.00;5078489;28;20039;-76
2022/05/04 01:53:05;;;;;;;22.75;14.10;;;;;;;8.61;70.92;100856.78;5080769;28;20423;-75
2022/05/04 01:55:34;;;;;;;23.83;15.43;;;;;;;8.55;71.32;100860.63;5116645;28;20044;-76
2022/05/04 01:58:00;;;;;;;25.27;14.07;;;;;;;8.53;71.59;100859.25;5116424;28;20039;-76
2022/05/04 02:00:25;;;;;;;24.50;14.27;;;;;;;8.53;71.51;100865.63;5098322;28;20114;-76
2022/05/04 02:02:51;;;;;;;22.20;14.45;;;;;;;8.50;71.52;100864.22;5080924;28;20051;-76
2022/05/04 02:05:16;;;;;;;22.08;13.77;;;;;;;8.47;71.34;100861.19;5078285;28;20388;-76
2022/05/04 02:07:42;;;;;;;18.85;13.65;;;;;;;8.45;71.40;100863.38;5076586;28;20028;-76
2022/05/04 02:10:08;;;;;;;22.50;13.98;;;;;;;8.46;71.68;100868.63;5037682;28;20028;-76
2022/05/04 02:12:34;;;;;;;21.48;13.25;;;;;;;8.44;71.67;100876.38;5080197;28;20686;-76
2022/05/04 02:15:00;;;;;;;22.95;13.98;;;;;;;8.45;71.79;100863.38;5098370;28;20024;-76
2022/05/04 02:17:26;;;;;;;25.08;14.10;;;;;;;8.43;71.56;100865.56;5116563;28;20493;-75
2022/05/04 02:19:51;;;;;;;21.70;14.82;;;;;;;8.41;71.89;100867.78;5081717;28;20031;-75
2022/05/04 02:22:18;;;;;;;23.65;13.77;;;;;;;8.40;71.74;100869.72;5125057;28;20031;-76
2022/05/04 02:24:43;;;;;;;21.35;14.15;;;;;;;8.40;71.95;100877.19;5101013;28;20110;-76
2022/05/04 02:27:09;;;;;;;20.73;13.55;;;;;;;8.41;71.85;100876.06;5118369;28;20036;-75
2022/05/04 02:29:34;;;;;;;21.02;13.38;;;;;;;8.44;72.06;100875.53;5092266;28;20496;-76
2022/05/04 02:32:00;;;;;;;22.60;14.40;;;;;;;8.41;71.89;100865.84;5102156;28;20028;-76
2022/05/04 02:34:26;;;;;;;20.80;14.23;;;;;;;8.43;72.17;100874.69;5102125;28;20065;-75
2022/05/04 02:39:35;;;;;;;20.30;13.05;;;;;;;8.38;72.46;100857.22;5120318;28;20027;-76
2022/05/04 02:42:01;;;;;;;21.92;14.05;;;;;;;8.42;72.13;100853.69;5081664;28;20089;-75
2022/05/04 02:44:27;;;;;;;21.35;13.80;;;;;;;8.40;72.38;100852.28;5111164;28;20063;-75
2022/05/04 02:46:52;;;;;;;24.60;14.40;;;;;;;8.39;72.30;100858.94;5102138;28;20030;-76
2022/05/04 02:49:18;;;;;;;25.88;14.88;;;;;;;8.42;72.45;100864.75;5101958;28;20043;-75
2022/05/04 02:51:44;;;;;;;22.65;13.82;;;;;;;8.42;72.37;100861.97;5120092;28;20027;-76
2022/05/04 02:54:10;;;;;;;22.60;14.52;;;;;;;8.42;72.57;100866.69;5101667;28;20024;-76
2022/05/04 02:56:35;;;;;;;23.33;14.57;;;;;;;8.39;72.32;100858.94;5101290;28;20655;-76
2022/05/04 02:59:01;;;;;;;21.83;15.15;;;;;;;8.42;72.24;100863.91;5120121;28;20759;-75
2022/05/04 03:04:27;;;;;;;23.80;14.68;;;;;;;8.34;72.67;100850.56;5041414;28;20509;-75
2022/05/04 03:06:53;;;;;;;30.08;17.55;;;;;;;8.38;73.02;100854.44;5086552;28;20044;-76
2022/05/04 03:09:18;;;;;;;23.17;15.13;;;;;;;8.37;72.88;100861.09;5101219;28;20051;-75
2022/05/04 03:11:56;;;;;;;25.23;15.23;;;;;;;8.36;72.44;100859.41;5101236;28;20038;-76
2022/05/04 03:14:26;;;;;;;23.92;15.38;;;;;;;8.34;72.86;100854.16;5101263;28;20031;-75
2022/05/04 03:16:52;;;;;;;23.95;15.35;;;;;;;8.34;73.10;100856.09;5119641;28;20035;-75
2022/05/04 03:19:18;;;;;;;21.67;15.07;;;;;;;8.29;72.83;100848.59;5109665;28;20042;-76
2022/05/04 03:21:43;;;;;;;25.42;15.95;;;;;;;8.29;73.17;100849.44;5055452;28;20563;-76
2022/05/04 03:24:09;;;;;;;24.85;15.43;;;;;;;8.26;73.16;100843.63;5099207;28;20051;-76
2022/05/04 03:26:35;;;;;;;26.45;15.73;;;;;;;8.29;73.52;100846.66;5119377;28;20571;-75
2022/05/04 03:29:01;;;;;;;24.42;15.55;;;;;;;8.26;73.37;100846.38;5079412;28;20032;-76
2022/05/04 03:31:27;;;;;;;26.10;15.68;;;;;;;8.25;73.47;100848.31;5108480;28;20023;-76
2022/05/04 03:33:53;;;;;;;23.75;14.95;;;;;;;8.24;72.86;100846.63;5078393;28;20040;-76
2022/05/04 03:36:19;;;;;;;25.20;15.27;;;;;;;8.24;73.25;100848.56;5100534;28;20039;-75
2022/05/04 03:38:44;;;;;;;25.33;16.00;;;;;;;8.26;72.99;100846.38;5100889;28;20031;-75
2022/05/04 03:41:10;;;;;;;25.95;15.65;;;;;;;8.21;73.05;100851.88;5088174;28;20507;-75
2022/05/04 03:43:36;;;;;;;27.52;16.20;;;;;;;8.19;73.32;100851.31;5098052;28;20058;-75
2022/05/04 03:46:20;;;;;;;24.23;15.98;;;;;;;8.15;73.13;100856.56;5100865;28;20379;-75
2022/05/04 03:48:46;;;;;;;22.52;14.90;;;;;;;8.10;73.34;100845.47;5100886;28;20035;-75
2022/05/04 03:51:13;;;;;;;23.90;15.48;;;;;;;8.12;73.22;100847.97;5100990;28;20031;-75
2022/05/04 03:53:39;;;;;;;25.02;16.02;;;;;;;8.03;73.42;100844.91;5118952;28;20063;-75
2022/05/04 03:56:05;;;;;;;24.20;15.57;;;;;;;8.01;73.34;100849.88;5080213;28;20044;-75
2022/05/04 03:58:31;;;;;;;25.08;16.25;;;;;;;8.01;73.34;100847.09;5117914;28;20078;-75
2022/05/04 04:00:56;;;;;;;27.70;17.35;;;;;;;7.96;73.26;100849.84;5118669;28;20032;-75
2022/05/04 04:03:22;;;;;;;28.05;16.23;;;;;;;7.95;73.60;100853.72;5118808;28;20540;-76
2022/05/04 04:05:47;;;;;;;26.95;15.55;;;;;;;7.91;73.32;100852.56;5080016;28;20040;-75
2022/05/04 04:08:13;;;;;;;26.20;16.02;;;;;;;7.86;73.48;100855.31;5081041;28;20440;-76
2022/05/04 04:10:38;;;;;;;25.98;16.15;;;;;;;7.85;73.36;100846.16;5083484;28;20034;-76
2022/05/04 04:13:06;;;;;;;28.10;16.73;;;;;;;7.81;73.27;100845.88;5100062;28;20024;-75
2022/05/04 04:15:32;;;;;;;29.85;16.45;;;;;;;7.79;73.46;100850.84;5122533;27;20050;-75
2022/05/04 04:17:58;;;;;;;27.40;16.70;;;;;;;7.72;73.61;100846.66;5080080;28;20105;-76
2022/05/04 04:23:07;;;;;;;29.10;17.27;;;;;;;7.63;73.75;100851.00;5092180;28;20024;-75
2022/05/04 04:25:33;;;;;;;28.00;16.60;;;;;;;7.63;73.65;100851.84;5083298;28;20028;-76
2022/05/04 04:27:58;;;;;;;27.75;17.27;;;;;;;7.61;73.58;100862.34;5062971;28;20036;-75
2022/05/04 04:30:23;;;;;;;27.15;16.80;;;;;;;7.58;73.34;100860.13;5105142;28;20032;-76
2022/05/04 04:32:49;;;;;;;28.88;16.50;;;;;;;7.53;73.54;100862.84;5099950;28;20024;-75
2022/05/04 04:35:14;;;;;;;27.00;16.13;;;;;;;7.51;74.06;100865.03;5099842;28;20023;-75
2022/05/04 04:37:40;;;;;;;29.73;16.83;;;;;;;7.49;73.60;100861.69;5099974;28;20039;-75
2022/05/04 04:40:06;;;;;;;27.85;17.17;;;;;;;7.46;73.97;100865.00;5099813;28;20051;-75
2022/05/04 04:42:32;;;;;;;27.52;17.20;;;;;;;7.44;73.97;100867.16;5079291;28;20024;-75
2022/05/04 04:44:57;;;;;;;26.88;15.98;;;;;;;7.40;74.00;100861.34;5113536;28;20129;-76
2022/05/04 04:47:23;;;;;;;27.42;16.17;;;;;;;7.39;73.98;100866.06;5098606;28;20019;-75
2022/05/04 04:49:48;;;;;;;25.02;15.88;;;;;;;7.37;74.00;100867.41;5099518;28;20027;-75
2022/05/04 04:52:14;;;;;;;27.58;16.70;;;;;;;7.34;73.99;100862.41;5118183;28;20031;-75
2022/05/04 04:54:39;;;;;;;30.20;18.00;;;;;;;7.32;74.45;100862.66;5081189;28;20032;-76
2022/05/04 04:57:05;;;;;;;29.77;17.10;;;;;;;7.31;74.23;100862.94;5099201;28;20476;-76
2022/05/04 04:59:30;;;;;;;26.20;16.65;;;;;;;7.27;74.38;100862.66;5117606;28;20552;-75
2022/05/04 05:01:56;;;;;;;27.35;16.42;;;;;;;7.26;74.47;100866.47;5099414;28;20384;-76
2022/05/04 05:04:21;;;;;;;28.90;17.23;;;;;;;7.27;74.16;100859.88;5080275;28;20031;-75
2022/05/04 05:06:47;;;;;;;27.88;16.60;;;;;;;7.25;74.60;100866.78;5099352;28;20034;-76
2022/05/04 05:09:12;;;;;;;28.30;17.65;;;;;;;7.27;75.18;100861.78;5082586;28;20027;-76
2022/05/04 05:11:38;;;;;;;28.05;16.77;;;;;;;7.28;75.11;100864.31;5089663;28;20023;-76
2022/05/04 05:16:48;;;;;;;33.40;17.50;;;;;;;7.39;75.99;100862.47;5061354;28;20092;-75
2022/05/04 05:19:13;;;;;;;29.52;18.15;;;;;;;7.39;76.74;100868.81;5065389;28;20027;-76
2022/05/04 05:21:39;;;;;;;32.40;18.30;;;;;;;7.45;77.89;100866.91;5082170;28;20476;-76
2022/05/04 05:24:05;;;;;;;30.40;17.75;;;;;;;7.52;78.63;100869.44;5096344;28;20077;-76
2022/05/04 05:26:33;;;;;;;33.63;19.85;;;;;;;7.61;79.54;100867.88;5099075;28;20498;-75
2022/05/04 05:28:58;;;;;;;32.70;18.80;;;;;;;7.70;81.21;100874.56;5062025;28;20035;-76
2022/05/04 05:31:24;;;;;;;33.22;20.33;;;;;;;7.79;82.30;100872.97;5107746;28;20031;-76
2022/05/04 05:33:49;;;;;;;34.20;20.55;;;;;;;7.92;84.61;100871.66;5098595;28;20156;-75
2022/05/04 05:36:15;;;;;;;33.83;19.63;;;;;;;8.05;84.16;100875.88;5078536;28;20089;-76
2022/05/04 05:38:40;;;;;;;28.08;17.48;;;;;;;8.18;81.90;100867.09;5113885;28;20522;-76
2022/05/04 05:41:06;;;;;;;31.02;18.45;;;;;;;8.32;82.00;100872.97;5098797;28;20032;-76
2022/05/04 05:43:34;;;;;;;34.13;19.80;;;;;;;8.49;85.18;100872.78;5098560;28;20024;-76
2022/05/04 05:46:00;;;;;;;27.27;16.70;;;;;;;8.63;80.52;100870.34;5045062;28;20495;-76
2022/05/04 05:48:25;;;;;;;27.60;16.40;;;;;;;8.79;77.42;100874.81;5096036;28;20028;-76
2022/05/04 05:50:51;;;;;;;27.55;16.48;;;;;;;8.97;76.55;100883.72;5098632;28;20035;-76
2022/05/04 05:53:16;;;;;;;27.50;17.25;;;;;;;9.13;77.36;100883.47;5098595;28;20039;-76
2022/05/04 05:55:42;;;;;;;28.45;16.23;;;;;;;9.30;75.82;100868.50;5092330;28;20044;-76
2022/05/04 05:58:09;;;;;;;31.77;19.48;;;;;;;9.47;78.41;100885.72;5095812;28;20036;-75
2022/05/04 06:00:35;;;;;;;30.20;17.73;;;;;;;9.64;76.86;100890.97;5096258;28;20036;-76
2022/05/04 06:03:01;;;;;;;34.50;21.27;;;;;;;9.80;81.75;100886.22;5041679;28;20045;-76
2022/05/04 06:05:26;;;;;;;37.95;22.73;;;;;;;9.95;83.08;100874.28;5048504;28;20444;-76
2022/05/04 06:07:52;;;;;;;33.03;19.90;;;;;;;10.14;82.75;100880.03;5085819;28;20465;-76
2022/05/04 06:10:17;;;;;;;37.20;21.75;;;;;;;10.33;79.83;100880.28;5048686;28;20040;-76
2022/05/04 06:12:44;;;;;;;32.63;19.60;;;;;;;10.51;76.79;100888.00;5054721;28;20033;-76
2022/05/04 06:15:10;;;;;;;28.65;17.65;;;;;;;10.69;76.06;100884.56;5061778;28;20024;-76
2022/05/04 06:17:36;;;;;;;32.45;20.40;;;;;;;10.85;77.60;100887.28;5078104;28;20476;-76
2022/05/04 06:20:03;;;;;;;41.10;23.70;;;;;;;11.04;79.50;100890.22;5095845;28;20365;-76
2022/05/04 06:22:29;;;;;;;39.17;22.60;;;;;;;11.22;78.13;100892.31;5058273;28;20583;-76
2022/05/04 06:24:54;;;;;;;33.05;20.65;;;;;;;11.34;78.46;100895.56;5078321;28;20031;-76
2022/05/04 06:27:20;;;;;;;37.63;24.80;;;;;;;11.49;81.07;100888.22;5057442;28;20036;-77
2022/05/04 06:35:13;;;;;;;33.22;21.52;;;;;;;12.02;76.25;100889.13;5080621;28;20032;-73
2022/05/04 06:37:39;;;;;;;37.83;22.92;;;;;;;12.23;76.21;100889.75;5078048;28;20035;-74
2022/05/04 06:40:06;;;;;;;38.30;23.35;;;;;;;12.35;77.71;100888.50;5042861;28;20458;-74
2022/05/04 06:42:32;;;;;;;33.65;21.40;;;;;;;12.54;74.19;100900.50;5077611;28;20055;-73
2022/05/04 06:44:58;;;;;;;33.75;20.23;;;;;;;12.70;72.32;100899.19;5043442;28;20507;-74
2022/05/04 06:47:24;;;;;;;34.95;21.65;;;;;;;12.89;72.74;100887.22;5057851;28;20028;-73
2022/05/04 06:49:49;;;;;;;33.50;20.20;;;;;;;13.06;72.38;100892.28;5091442;28;20484;-73
2022/05/04 06:52:14;;;;;;;34.33;22.25;;;;;;;13.18;73.07;100892.66;5077849;28;20028;-73
2022/05/04 06:54:40;;;;;;;38.70;25.27;;;;;;;13.30;74.66;100895.84;5077737;28;20085;-73
2022/05/04 06:57:06;;;;;;;33.95;21.38;;;;;;;13.48;71.49;100896.09;5078627;28;20423;-73
2022/05/04 06:59:31;;;;;;;27.10;17.83;;;;;;;13.67;68.30;100893.28;5063258;28;20488;-73
2022/05/04 07:01:57;;;;;;;31.75;18.83;;;;;;;13.84;68.10;100894.34;5081252;28;20031;-72
2022/05/04 07:04:22;;;;;;;29.52;18.48;;;;;;;13.95;67.62;100903.38;5091640;28;20036;-72
2022/05/04 07:06:48;;;;;;;34.95;23.40;;;;;;;14.14;72.33;100908.91;5067441;28;20395;-74
2022/05/04 07:09:14;;;;;;;37.00;22.88;;;;;;;14.27;69.84;100907.25;5081075;28;20015;-71
2022/05/04 07:11:39;;;;;;;35.20;21.92;;;;;;;14.47;69.88;100894.84;5079517;28;20039;-73
2022/05/04 07:14:05;;;;;;;30.52;19.08;;;;;;;14.66;67.57;100908.75;5038243;28;20050;-72
2022/05/04 07:16:31;;;;;;;36.30;21.15;;;;;;;14.75;67.16;100901.28;5064365;28;20024;-71
2022/05/04 07:18:56;;;;;;;29.95;18.75;;;;;;;14.93;66.18;100903.13;5062315;28;20107;-75
2022/05/04 07:21:22;;;;;;;33.47;21.80;;;;;;;15.01;68.63;100909.09;5064696;28;20027;-75
2022/05/04 07:23:47;;;;;;;36.55;23.08;;;;;;;15.11;69.67;100908.88;5065647;28;20020;-75
2022/05/04 07:26:13;;;;;;;32.45;21.25;;;;;;;15.25;68.98;100911.63;5062112;28;20032;-75
2022/05/04 07:28:38;;;;;;;35.22;21.50;;;;;;;15.34;69.91;100913.34;5059536;28;20109;-75
2022/05/04 07:31:03;;;;;;;33.88;22.08;;;;;;;15.47;69.89;100910.81;5036960;28;20494;-75
2022/05/04 07:33:29;;;;;;;33.22;21.40;;;;;;;15.61;68.33;100911.59;5035619;28;20028;-75
2022/05/04 07:35:55;;;;;;;35.42;21.90;;;;;;;15.70;68.08;100908.88;5082129;28;20042;-75
2022/05/04 07:38:20;;;;;;;36.10;21.77;;;;;;;15.77;69.31;100918.50;5062348;28;20039;-75
2022/05/04 07:43:30;;;;;;;36.22;22.80;;;;;;;16.01;69.28;100912.53;5064402;28;20028;-74
2022/05/04 07:45:55;;;;;;;31.35;21.30;;;;;;;16.12;68.37;100910.28;5111787;28;20028;-74
2022/05/04 07:48:21;;;;;;;32.25;21.73;;;;;;;16.21;67.38;100910.31;5118495;28;20027;-74
2022/05/04 07:50:47;;;;;;;30.92;20.60;;;;;;;16.33;65.49;100909.72;5119081;28;20027;-73
2022/05/04 07:53:12;;;;;;;32.83;21.10;;;;;;;16.41;64.01;100911.72;5100949;28;20032;-74
2022/05/04 07:55:38;;;;;;;36.28;23.17;;;;;;;16.47;64.81;100919.69;5100381;28;20051;-74
2022/05/04 07:58:03;;;;;;;33.20;21.45;;;;;;;16.59;64.11;100907.84;5094119;28;20091;-74
2022/05/04 08:05:57;;;;;;;30.83;21.30;;;;;;;16.86;65.21;100905.97;5118537;28;20066;-74
2022/05/04 08:08:23;;;;;;;32.22;21.90;;;;;;;16.89;62.11;100906.13;5116693;28;20024;-74
2022/05/04 08:10:48;;;;;;;31.70;21.55;;;;;;;16.97;61.04;100910.13;5095741;28;20081;-74
2022/05/04 08:13:14;;;;;;;33.88;22.65;;;;;;;17.04;61.16;100910.44;5099882;28;20036;-74
2022/05/04 08:15:39;;;;;;;35.17;23.00;;;;;;;17.07;60.93;100912.59;5118440;28;20028;-77
2022/05/04 08:18:05;;;;;;;33.10;22.20;;;;;;;17.18;60.74;100915.91;5118616;28;20057;-76
2022/05/04 08:20:30;;;;;;;30.65;22.85;;;;;;;17.18;59.98;100905.50;5118421;28;20032;-76
2022/05/04 08:22:59;;;;;;;32.30;22.73;;;;;;;17.34;60.10;100916.25;5100131;28;20020;-76
2022/05/04 08:25:25;;;;;;;33.42;22.45;;;;;;;17.47;60.24;100912.47;5083174;28;20480;-76
2022/05/04 08:27:51;;;;;;;29.92;19.52;;;;;;;17.58;59.13;100910.97;5079378;28;20050;-76
2022/05/04 08:30:17;;;;;;;25.70;18.48;;;;;;;17.70;58.19;100909.47;5075858;28;20059;-76
2022/05/04 08:32:47;;;;;;;25.50;17.85;;;;;;;17.72;57.65;100909.94;5100052;28;20034;-77
2022/05/04 08:35:13;;;;;;;30.92;21.02;;;;;;;17.71;56.65;100913.91;5109527;28;20028;-76
2022/05/04 08:37:39;;;;;;;33.60;20.30;;;;;;;17.85;56.19;100920.19;5082513;28;20039;-76
2022/05/04 08:40:05;;;;;;;23.40;16.77;;;;;;;17.92;55.81;100919.69;5099934;28;20034;-76
2022/05/04 08:42:30;;;;;;;23.83;17.40;;;;;;;17.95;54.86;100919.03;5099542;28;20031;-76
2022/05/04 08:44:58;;;;;;;31.50;21.15;;;;;;;17.91;54.36;100927.28;5099807;28;20027;-76
2022/05/04 08:47:25;;;;;;;26.55;19.63;;;;;;;17.87;54.78;100920.69;5079471;28;20542;-76
2022/05/04 08:49:51;;;;;;;23.30;16.50;;;;;;;18.11;54.76;100920.16;5098246;28;20451;-76
2022/05/04 08:52:16;;;;;;;26.63;18.63;;;;;;;18.16;54.75;100921.94;5117928;28;20093;-76
2022/05/04 08:54:45;;;;;;;26.08;18.33;;;;;;;18.28;54.33;100922.09;5065906;28;20411;-76
2022/05/04 08:57:11;;;;;;;22.60;14.98;;;;;;;18.40;54.24;100918.56;5117596;28;20048;-76
2022/05/04 08:59:36;;;;;;;21.17;15.07;;;;;;;18.50;53.82;100918.19;5117417;28;20053;-76
2022/05/04 09:02:02;;;;;;;23.02;17.00;;;;;;;18.43;53.37;100917.88;5116415;28;20112;-76
2022/05/04 09:04:30;;;;;;;29.15;19.20;;;;;;;18.56;52.90;100927.25;5116598;28;20110;-76
2022/05/04 09:06:56;;;;;;;29.40;20.40;;;;;;;18.56;52.85;100932.88;5098739;28;20031;-76
2022/05/04 09:09:22;;;;;;;28.60;19.65;;;;;;;18.59;53.82;100929.41;5115342;28;20034;-76
2022/05/04 09:11:47;;;;;;;28.92;20.10;;;;;;;18.69;52.63;100940.25;5116035;28;20040;-76
2022/05/04 09:14:20;;;;;;;25.80;17.63;;;;;;;18.84;53.19;100922.84;5116233;28;20035;-81
2022/05/04 09:16:46;;;;;;;28.02;20.75;;;;;;;18.80;52.71;100933.09;5081097;28;20463;-77
2022/05/04 09:19:13;;;;;;;27.88;20.13;;;;;;;18.90;52.61;100932.72;5082113;28;20036;-77
2022/05/04 09:21:41;;;;;;;29.48;21.38;;;;;;;18.94;52.23;100939.34;5083846;28;20107;-77
2022/05/04 09:24:08;;;;;;;28.20;20.80;;;;;;;19.02;52.63;100931.97;5098584;28;20126;-76
2022/05/04 09:26:40;;;;;;;36.13;22.00;;;;;;;19.18;51.91;100935.03;5116399;28;20055;-76
2022/05/04 09:29:06;;;;;;;30.40;20.50;;;;;;;19.22;51.74;100938.78;5098219;28;20019;-77
2022/05/04 09:31:32;;;;;;;32.17;21.48;;;;;;;19.28;51.37;100943.06;5115970;28;20098;-77
2022/05/04 09:33:59;;;;;;;26.90;19.38;;;;;;;19.37;50.95;100940.19;5057897;28;20107;-77
2022/05/04 09:36:35;;;;;;;36.67;21.70;;;;;;;19.30;50.49;100937.09;5076642;28;20483;-76
2022/05/04 09:45:16;;;;;;;27.63;18.80;;;;;;;19.36;50.28;100933.75;5059971;28;20062;-76
2022/05/04 09:47:43;;;;;;;24.98;18.35;;;;;;;19.42;50.37;100940.00;5062482;28;20167;-76
2022/05/04 09:50:09;;;;;;;23.33;15.85;;;;;;;19.49;51.12;100931.78;5060730;28;20045;-76
2022/05/04 09:52:50;;;;;;;23.70;15.98;;;;;;;19.62;51.66;100936.31;5051588;28;20453;-76
2022/05/04 09:55:24;;;;;;;22.67;16.58;;;;;;;19.75;51.09;100931.63;5027843;28;20086;-76
2022/05/04 09:57:49;;;;;;;21.67;13.57;;;;;;;19.93;50.57;100937.06;5062626;28;20036;-77
2022/05/04 10:00:17;;;;;;;20.42;14.98;;;;;;;20.01;50.61;100936.16;5056014;28;20094;-77
2022/05/04 10:02:45;;;;;;;25.52;19.10;;;;;;;20.03;49.79;100934.66;5034008;28;20503;-76
2022/05/04 10:05:11;;;;;;;22.52;16.48;;;;;;;20.04;49.70;100941.09;5052568;28;20033;-76
2022/05/04 10:07:37;;;;;;;19.75;15.50;;;;;;;20.15;50.24;100947.94;5046846;28;20036;-76
2022/05/04 10:10:06;;;;;;;23.25;16.63;;;;;;;20.24;48.92;100934.56;5038594;28;20040;-76
2022/05/04 10:12:33;;;;;;;22.48;15.65;;;;;;;20.34;49.73;100930.47;5059431;28;20044;-77
2022/05/04 10:14:58;;;;;;;25.35;16.58;;;;;;;20.30;47.82;100943.63;5053777;28;20044;-77
2022/05/04 10:17:24;;;;;;;22.27;14.60;;;;;;;20.43;47.81;100947.28;5096556;28;20034;-77
2022/05/04 10:20:05;;;;;;;22.08;14.57;;;;;;;20.50;48.53;100945.56;5086241;28;20086;-76
2022/05/04 10:22:41;;;;;;;21.80;15.45;;;;;;;20.55;48.86;100936.03;5112194;28;20034;-77
2022/05/04 10:25:07;;;;;;;22.42;16.63;;;;;;;20.69;48.88;100942.16;5095225;28;20119;-77
2022/05/04 10:27:39;;;;;;;21.90;16.13;;;;;;;20.84;49.58;100936.97;5097390;28;20056;-76
2022/05/04 10:32:51;;;;;;;22.02;15.40;;;;;;;21.06;48.89;100942.16;5084361;28;20494;-77
2022/05/04 10:35:20;;;;;;;22.95;16.67;;;;;;;21.09;47.58;100949.06;5115729;28;20054;-77
2022/05/04 10:38:04;;;;;;;21.83;14.88;;;;;;;21.15;47.79;100940.03;5115311;28;20114;-76
2022/05/04 10:40:34;;;;;;;20.08;14.63;;;;;;;21.23;47.26;100934.56;5112053;28;20031;-76
2022/05/04 10:43:08;;;;;;;15.95;12.10;;;;;;;21.36;47.06;100933.38;5097820;28;20033;-76
2022/05/04 10:45:40;;;;;;;23.42;15.52;;;;;;;21.39;46.53;100944.81;5116583;28;20035;-77
2022/05/04 10:48:18;;;;;;;18.88;14.18;;;;;;;21.47;46.67;100945.84;5101337;28;20030;-76
2022/05/04 10:50:46;;;;;;;17.88;12.93;;;;;;;21.50;45.26;100942.31;5119930;28;20063;-76
2022/05/04 10:53:35;;;;;;;20.38;14.45;;;;;;;21.48;46.01;100941.88;5100982;28;20027;-76
2022/05/04 10:56:03;;;;;;;18.75;13.18;;;;;;;21.55;46.02;100935.59;5117134;28;20043;-76
2022/05/04 10:58:35;;;;;;;18.35;12.35;;;;;;;21.66;44.91;100945.22;5095781;28;20043;-76
2022/05/04 11:01:05;;;;;;;;;;;;;;;21.77;45.42;100942.69;5096066;28;20067;-76
2022/05/04 11:03:34;;;;;;;12.95;9.13;;;;;;;21.88;45.24;100943.81;5116310;28;19911;-76
2022/05/04 11:06:09;;;;;;;12.07;8.32;;;;;;;22.06;44.33;100941.47;5114846;28;20042;-76
2022/05/04 11:08:38;;;;;;;15.10;11.00;;;;;;;22.12;43.49;100937.22;5079496;28;20027;-76
2022/05/04 11:11:04;;;;;;;12.52;9.43;;;;;;;22.22;43.27;100939.53;5112158;27;20032;-76
2022/05/04 11:13:31;;;;;;;13.10;9.20;;;;;;;22.24;43.46;100944.84;5119174;28;20044;-76
2022/05/04 11:15:57;;;;;;;13.23;9.45;;;;;;;22.34;42.54;100938.63;5094432;28;20071;-76
2022/05/04 11:18:24;;;;;;;14.57;10.75;;;;;;;22.40;42.88;100937.19;5097115;28;20103;-76
2022/05/04 11:20:50;;;;;;;13.38;9.88;;;;;;;22.48;42.45;100922.06;5100005;28;20049;-75
2022/05/04 11:23:25;;;;;;;11.23;8.10;;;;;;;22.65;42.82;100926.53;5098827;28;20051;-76
2022/05/04 11:25:51;;;;;;;12.07;8.90;;;;;;;22.77;43.00;100928.41;5094962;28;20035;-76
2022/05/04 11:28:23;;;;;;;11.30;8.68;;;;;;;22.82;42.74;100933.81;5117375;28;20031;-76
2022/05/04 11:30:48;;;;;;;15.55;10.50;;;;;;;22.89;42.79;100931.13;5095071;28;20027;-76
2022/05/04 11:33:14;;;;;;;11.52;7.63;;;;;;;23.01;42.57;100935.88;5099102;28;20377;-76
2022/05/04 11:35:42;;;;;;;14.15;9.48;;;;;;;23.06;42.39;100934.78;5100216;28;20024;-76
2022/05/04 11:38:07;;;;;;;11.57;9.40;;;;;;;23.13;41.75;100934.97;5118886;28;20047;-76
2022/05/04 11:40:33;;;;;;;11.88;7.60;;;;;;;23.21;42.47;100933.94;5114260;28;20491;-76
2022/05/04 11:42:58;;;;;;;9.93;7.45;;;;;;;23.39;41.79;100929.47;5115417;28;20027;-76
2022/05/04 11:45:24;;;;;;;8.25;7.18;;;;;;;23.49;41.20;100922.41;5115259;27;20031;-76